Time;durP1;ratioP1;P1;durP2;ratioP2;P2;SDS_P1;SDS_P2;PMS_P1;PMS_P2;Temp;Humidity;BMP_temperature;BMP_pressure;BME280_temperature;BME280_humidity;BME280_pressure;Samples;Min_cycle;Max_cycle;Signal;HPM_P1;HPM_P2
2022/08/27 00:01:54;;;;;;;15.03;12.60;;;;;;;22.80;67.69;97239.00;5052742;28;20183;-70
2022/08/27 00:04:19;;;;;;;23.57;14.20;;;;;;;22.81;67.61;97232.63;5052665;28;20277;-70
2022/08/27 00:06:45;;;;;;;17.83;14.13;;;;;;;22.85;67.59;97231.13;5051802;28;20225;-70
2022/08/27 00:09:10;;;;;;;24.80;16.00;;;;;;;22.82;67.34;97232.38;5060509;28;20258;-70
2022/08/27 00:11:36;;;;;;;18.60;16.80;;;;;;;22.82;67.52;97229.69;5052697;28;20179;-69
2022/08/27 00:14:02;;;;;;;23.90;17.23;;;;;;;22.84;67.78;97237.50;5052372;28;20525;-71
2022/08/27 00:16:27;;;;;;;17.10;14.63;;;;;;;22.84;67.91;97232.97;5051419;28;20562;-71
2022/08/27 00:18:54;;;;;;;17.80;15.10;;;;;;;22.84;68.03;97235.63;5052135;28;20453;-70
2022/08/27 00:21:19;;;;;;;24.33;16.30;;;;;;;22.89;68.08;97228.78;5051900;28;20186;-71
2022/08/27 00:23:45;;;;;;;15.70;14.00;;;;;;;22.89;67.88;97239.47;5049871;28;20430;-71
2022/08/27 00:26:10;;;;;;;17.77;15.50;;;;;;;22.90;67.80;97241.09;5050276;28;20211;-70
2022/08/27 00:28:36;;;;;;;17.93;15.33;;;;;;;22.89;67.91;97234.94;5050630;28;20642;-72
2022/08/27 00:31:02;;;;;;;21.73;15.53;;;;;;;;;;5052194;28;20599;-71
2022/08/27 00:33:29;;;;;;;20.10;16.43;;;;;;;22.91;67.81;97237.41;5055042;28;20289;-71
2022/08/27 00:35:55;;;;;;;18.10;14.73;;;;;;;22.89;67.86;97236.81;5056743;28;20701;-71
2022/08/27 00:38:21;;;;;;;19.20;15.67;;;;;;;22.88;68.04;97237.84;5049855;28;20446;-70
2022/08/27 00:40:47;;;;;;;28.93;17.10;;;;;;;22.89;68.12;97234.13;5052089;28;20418;-70
2022/08/27 00:43:21;;;;;;;18.40;14.83;;;;;;;22.92;68.05;97228.34;5051537;28;20426;-72
2022/08/27 00:45:46;;;;;;;23.83;17.67;;;;;;;22.97;67.90;97233.78;5058151;28;20220;-70
2022/08/27 00:48:14;;;;;;;22.30;17.73;;;;;;;22.94;67.98;97234.25;5049804;28;20461;-71
2022/08/27 00:50:44;;;;;;;22.20;19.13;;;;;;;22.94;68.06;97236.91;5050702;28;20269;-71
2022/08/27 00:53:14;;;;;;;23.40;16.90;;;;;;;22.88;68.42;97232.50;5049058;28;20488;-71
2022/08/27 00:55:44;;;;;;;21.93;17.73;;;;;;;22.91;68.47;97221.38;5050474;28;20472;-72
2022/08/27 00:58:36;;;;;;;25.00;20.30;;;;;;;22.86;68.30;97220.19;5050407;28;20476;-71
2022/08/27 01:01:05;;;;;;;21.17;18.23;;;;;;;22.90;68.17;97217.06;5051688;28;20410;-71
2022/08/27 01:03:30;;;;;;;21.77;19.40;;;;;;;22.90;68.47;97219.72;5059598;28;20476;-71
2022/08/27 01:05:58;;;;;;;25.53;19.87;;;;;;;22.91;68.59;97221.38;5051577;28;20519;-71
2022/08/27 01:08:25;;;;;;;24.63;19.00;;;;;;;22.92;68.43;97223.00;5049205;28;20183;-70
2022/08/27 01:10:53;;;;;;;22.47;20.07;;;;;;;22.92;68.46;97229.13;5050516;28;20425;-71
2022/08/27 01:13:22;;;;;;;29.33;19.00;;;;;;;22.91;68.63;97216.03;5051290;28;20422;-70
2022/08/27 01:15:48;;;;;;;20.43;17.50;;;;;;;22.86;68.88;97212.16;5050427;28;20434;-70
2022/08/27 01:18:14;;;;;;;25.87;19.63;;;;;;;22.81;69.06;97212.03;5050289;28;20458;-70
2022/08/27 01:20:46;;;;;;;22.90;18.70;;;;;;;22.79;69.21;97208.81;5056086;28;20427;-70
2022/08/27 01:23:27;;;;;;;23.50;19.13;;;;;;;22.79;69.36;97213.31;5048557;28;20430;-70
2022/08/27 01:25:53;;;;;;;22.50;19.50;;;;;;;22.84;69.33;97211.59;5051392;28;20938;-71
2022/08/27 01:28:20;;;;;;;23.17;19.03;;;;;;;22.90;69.17;97211.72;5048863;28;20417;-70
2022/08/27 01:30:45;;;;;;;22.87;19.70;;;;;;;22.91;69.00;97210.69;5050014;28;20229;-70
2022/08/27 01:33:14;;;;;;;24.73;18.77;;;;;;;22.90;69.12;97212.53;5050744;28;21063;-70
2022/08/27 01:35:41;;;;;;;24.93;20.00;;;;;;;22.89;69.09;97208.22;5050643;28;20238;-70
2022/08/27 01:38:08;;;;;;;24.30;20.17;;;;;;;22.86;68.79;97204.16;5049857;28;20842;-71
2022/08/27 01:40:33;;;;;;;24.43;19.50;;;;;;;22.78;69.57;97207.19;5051201;28;20457;-70
2022/08/27 01:42:59;;;;;;;22.87;19.00;;;;;;;22.70;69.73;97212.84;5051179;28;20453;-70
2022/08/27 01:45:28;;;;;;;23.53;19.70;;;;;;;22.65;69.82;97215.41;5056212;28;20214;-70
2022/08/27 01:47:54;;;;;;;24.43;19.70;;;;;;;22.66;69.73;97215.16;5050356;28;20650;-69
2022/08/27 01:50:31;;;;;;;24.50;20.07;;;;;;;22.71;70.00;97214.47;5050389;28;20464;-70
2022/08/27 01:53:00;;;;;;;22.00;19.73;;;;;;;22.77;70.13;97208.22;5049502;28;20653;-70
2022/08/27 01:55:26;;;;;;;26.20;19.70;;;;;;;22.82;69.96;97210.19;5050406;28;20447;-70
2022/08/27 01:57:53;;;;;;;23.07;18.33;;;;;;;22.85;69.94;97213.22;5050197;28;21085;-71
2022/08/27 02:00:23;;;;;;;25.40;20.33;;;;;;;22.86;69.74;97209.50;5050689;28;20207;-70
2022/08/27 02:02:49;;;;;;;24.23;19.60;;;;;;;22.83;70.00;97211.81;5056964;28;20543;-70
2022/08/27 02:05:15;;;;;;;24.63;18.80;;;;;;;22.73;70.28;97219.59;5052619;28;20984;-70
2022/08/27 02:07:41;;;;;;;21.77;18.43;;;;;;;22.73;69.99;97209.72;5058404;28;20282;-69
2022/08/27 02:10:09;;;;;;;24.83;19.73;;;;;;;22.73;70.00;97207.03;5050725;28;20274;-69
2022/08/27 02:12:35;;;;;;;21.70;18.73;;;;;;;22.78;69.95;97212.53;5050625;28;20418;-72
2022/08/27 02:15:00;;;;;;;22.40;18.47;;;;;;;22.81;69.86;97206.69;5050875;28;20544;-72
2022/08/27 02:17:26;;;;;;;22.20;19.77;;;;;;;22.81;69.97;97212.03;5049424;28;20227;-71
2022/08/27 02:19:52;;;;;;;24.33;20.20;;;;;;;22.82;69.79;97210.19;5049585;28;20187;-71
2022/08/27 02:22:17;;;;;;;28.20;19.70;;;;;;;22.86;69.92;97211.38;5057560;28;20190;-71
2022/08/27 02:24:43;;;;;;;24.03;19.97;;;;;;;22.86;69.75;97206.84;5048371;28;20425;-71
2022/08/27 02:27:09;;;;;;;23.87;20.13;;;;;;;22.84;69.76;97214.25;5049720;28;20203;-71
2022/08/27 02:29:34;;;;;;;26.93;19.70;;;;;;;22.82;70.08;97212.88;5050820;28;20187;-70
2022/08/27 02:32:00;;;;;;;27.43;20.73;;;;;;;22.86;69.99;97220.19;5050555;28;20429;-71
2022/08/27 02:34:27;;;;;;;20.40;18.20;;;;;;;22.86;70.21;97209.50;5047100;28;20265;-72
2022/08/27 02:36:53;;;;;;;30.70;19.97;;;;;;;22.83;69.96;97209.97;5047873;28;20223;-71
2022/08/27 02:39:19;;;;;;;31.10;20.20;;;;;;;22.82;70.11;97211.00;5048436;28;20469;-70
2022/08/27 02:41:44;;;;;;;23.10;20.50;;;;;;;22.86;70.20;97212.16;5050724;28;20417;-70
2022/08/27 02:44:10;;;;;;;22.70;20.30;;;;;;;22.84;69.73;97211.59;5050224;28;20187;-69
2022/08/27 02:46:37;;;;;;;24.30;20.50;;;;;;;22.85;70.09;97212.41;5055969;28;20218;-70
2022/08/27 02:49:03;;;;;;;27.90;19.67;;;;;;;22.73;70.51;97216.94;5050561;28;20576;-71
2022/08/27 02:51:28;;;;;;;22.47;18.90;;;;;;;22.76;70.76;97209.25;5050373;28;20485;-70
2022/08/27 02:53:54;;;;;;;24.93;19.83;;;;;;;22.80;70.74;97218.47;5048104;28;20222;-70
2022/08/27 02:56:19;;;;;;;25.40;20.67;;;;;;;22.85;70.73;97215.88;5049764;28;20207;-71
2022/08/27 02:58:44;;;;;;;22.73;19.77;;;;;;;22.81;70.27;97211.25;5049951;28;20211;-70
2022/08/27 03:01:10;;;;;;;29.33;22.33;;;;;;;22.76;70.22;97214.59;5050533;28;20321;-70
2022/08/27 03:03:36;;;;;;;27.20;22.57;;;;;;;22.76;69.86;97219.94;5053933;28;20177;-70
2022/08/27 03:06:01;;;;;;;26.33;22.90;;;;;;;22.74;69.87;97216.69;5053923;28;20234;-71
2022/08/27 03:08:27;;;;;;;31.30;23.90;;;;;;;22.75;70.01;97218.31;5053041;28;20265;-71
2022/08/27 03:10:54;;;;;;;27.03;21.87;;;;;;;22.74;70.40;97211.34;5053591;28;20190;-70
2022/08/27 03:13:20;;;;;;;27.63;22.00;;;;;;;22.75;69.88;97218.31;5053452;28;20432;-71
2022/08/27 03:15:45;;;;;;;23.83;20.30;;;;;;;22.74;69.67;97213.22;5053451;28;20953;-70
2022/08/27 03:18:20;;;;;;;23.83;20.50;;;;;;;22.72;69.26;97213.44;5052858;28;20249;-70
2022/08/27 03:20:51;;;;;;;23.63;20.87;;;;;;;22.65;69.17;97218.06;5059411;28;20192;-70
2022/08/27 03:23:21;;;;;;;23.37;19.93;;;;;;;22.65;69.05;97218.06;5060949;28;20941;-71
2022/08/27 03:25:51;;;;;;;21.60;19.30;;;;;;;22.60;69.20;97213.44;5053319;28;20442;-70
2022/08/27 03:28:19;;;;;;;22.93;19.57;;;;;;;22.58;69.31;97218.19;5052314;28;20414;-71
2022/08/27 03:30:49;;;;;;;22.37;19.13;;;;;;;22.58;69.33;97217.34;5059193;28;20423;-71
2022/08/27 03:33:14;;;;;;;23.03;19.07;;;;;;;22.57;69.42;97210.38;5054961;28;20472;-70
2022/08/27 03:35:40;;;;;;;24.70;18.77;;;;;;;22.62;69.36;97215.84;5052981;28;20956;-70
2022/08/27 03:38:05;;;;;;;21.27;19.03;;;;;;;22.56;69.43;97209.59;5051948;28;20203;-71
2022/08/27 03:40:31;;;;;;;21.57;18.20;;;;;;;22.63;69.55;97207.59;5053100;28;20217;-70
2022/08/27 03:42:57;;;;;;;22.50;18.00;;;;;;;22.64;69.32;97208.44;5053106;28;20202;-71
2022/08/27 03:45:22;;;;;;;23.97;17.37;;;;;;;22.66;69.21;97209.03;5059347;28;20657;-70
2022/08/27 03:47:49;;;;;;;23.97;17.00;;;;;;;22.54;68.81;97215.16;5052267;28;20464;-70
2022/08/27 03:50:15;;;;;;;21.10;18.60;;;;;;;22.59;69.07;97211.81;5052668;28;20191;-70
2022/08/27 03:52:40;;;;;;;20.43;18.27;;;;;;;22.55;69.32;97215.97;5053781;28;20480;-71
2022/08/27 03:55:07;;;;;;;20.63;17.97;;;;;;;22.59;69.42;97208.31;5049644;28;20548;-70
2022/08/27 03:57:32;;;;;;;18.73;16.73;;;;;;;22.57;69.54;97213.06;5050541;28;20203;-71
2022/08/27 03:59:59;;;;;;;22.17;18.87;;;;;;;22.60;69.63;97209.94;5041841;28;20445;-72
2022/08/27 04:02:24;;;;;;;21.43;19.13;;;;;;;22.57;69.67;97205.88;5041173;28;20198;-71
2022/08/27 04:04:50;;;;;;;29.40;20.57;;;;;;;22.47;69.32;97206.41;5052190;28;20414;-71
2022/08/27 04:07:15;;;;;;;20.23;18.20;;;;;;;22.47;69.58;97195.75;5051436;28;20437;-71
2022/08/27 04:09:41;;;;;;;23.13;18.90;;;;;;;22.49;69.08;97193.66;5051947;28;20265;-72
2022/08/27 04:12:07;;;;;;;25.80;18.60;;;;;;;22.46;69.03;97196.78;5052744;28;20252;-70
2022/08/27 04:14:33;;;;;;;22.07;19.67;;;;;;;22.50;68.94;97200.63;5052135;28;20183;-71
2022/08/27 04:16:59;;;;;;;21.37;18.97;;;;;;;22.53;68.88;97202.84;5052267;28;20206;-70
2022/08/27 04:19:26;;;;;;;25.40;21.07;;;;;;;22.49;68.74;97206.22;5052467;28;20469;-71
2022/08/27 04:21:52;;;;;;;25.93;20.23;;;;;;;22.45;69.05;97203.16;5060903;28;20414;-71
2022/08/27 04:24:17;;;;;;;23.87;20.50;;;;;;;22.46;69.05;97212.81;5052707;28;20478;-71
2022/08/27 04:26:44;;;;;;;23.43;20.50;;;;;;;22.48;69.04;97209.91;5052054;28;20285;-71
2022/08/27 04:29:10;;;;;;;27.90;21.03;;;;;;;22.46;68.69;97214.69;5052300;28;20210;-71
2022/08/27 04:31:35;;;;;;;23.47;20.90;;;;;;;22.39;69.04;97214.75;5051030;28;20468;-70
2022/08/27 04:34:01;;;;;;;26.90;21.30;;;;;;;22.37;68.91;97216.81;5051927;28;20266;-71
2022/08/27 04:36:26;;;;;;;28.97;22.07;;;;;;;22.39;68.91;97212.88;5048931;28;20239;-70
2022/08/27 04:38:52;;;;;;;27.90;22.63;;;;;;;22.38;68.83;97218.44;5052837;28;20203;-70
2022/08/27 04:41:21;;;;;;;34.30;23.90;;;;;;;22.39;68.61;97212.88;5044947;28;20197;-71
2022/08/27 04:43:55;;;;;;;29.67;23.67;;;;;;;22.40;68.67;97216.38;5051149;28;20194;-70
2022/08/27 04:46:39;;;;;;;30.60;24.23;;;;;;;22.39;68.34;97212.88;5061040;28;20940;-72
2022/08/27 04:49:10;;;;;;;37.53;27.40;;;;;;;22.41;68.51;97218.03;5051430;28;20436;-71
2022/08/27 04:51:37;;;;;;;42.77;30.03;;;;;;;22.36;68.75;97220.53;5051080;28;20842;-71
2022/08/27 04:54:05;;;;;;;38.97;30.33;;;;;;;22.32;68.94;97219.34;5068348;28;20413;-71
2022/08/27 04:56:31;;;;;;;41.33;31.17;;;;;;;22.33;69.07;97208.47;5042682;28;20449;-71
2022/08/27 04:58:57;;;;;;;42.47;32.47;;;;;;;22.36;69.11;97209.84;5051357;28;20556;-71
2022/08/27 05:01:25;;;;;;;38.73;31.23;;;;;;;22.36;68.88;97213.34;5049790;28;20524;-71
2022/08/27 05:03:50;;;;;;;44.23;32.87;;;;;;;22.33;69.31;97216.47;5066259;28;20269;-70
2022/08/27 05:06:16;;;;;;;41.97;33.40;;;;;;;22.33;69.54;97215.63;5052539;28;20580;-71
2022/08/27 05:08:42;;;;;;;45.50;33.70;;;;;;;22.36;69.40;97215.19;5051090;28;20189;-70
2022/08/27 05:11:12;;;;;;;41.40;32.23;;;;;;;22.35;69.48;97211.72;5051173;28;20179;-71
2022/08/27 05:13:38;;;;;;;59.07;34.27;;;;;;;22.39;69.35;97220.09;5069974;28;20179;-70
2022/08/27 05:16:06;;;;;;;45.93;34.10;;;;;;;22.35;69.69;97219.72;5063852;28;20448;-72
2022/08/27 05:18:34;;;;;;;45.20;32.77;;;;;;;22.37;69.82;97217.63;5054708;28;20965;-71
2022/08/27 05:20:59;;;;;;;44.27;33.23;;;;;;;22.40;69.93;97221.72;5060437;28;20444;-71
2022/08/27 05:23:26;;;;;;;42.97;34.87;;;;;;;22.39;70.24;97214.75;5067465;28;20426;-71
2022/08/27 05:25:53;;;;;;;45.10;32.97;;;;;;;22.38;70.18;97208.56;5058724;28;20203;-72
2022/08/27 05:28:22;;;;;;;46.03;34.43;;;;;;;22.41;70.15;97212.69;5052229;28;20441;-71
2022/08/27 05:30:50;;;;;;;48.20;34.30;;;;;;;22.42;70.08;97213.50;5063263;28;20434;-71
2022/08/27 05:33:19;;;;;;;44.17;34.50;;;;;;;22.44;70.14;97214.88;5048348;28;20437;-71
2022/08/27 05:35:47;;;;;;;42.83;33.00;;;;;;;22.46;70.14;97210.13;5052781;28;20436;-70
2022/08/27 05:38:13;;;;;;;38.60;32.87;;;;;;;22.47;69.83;97211.75;5054081;28;20460;-71
2022/08/27 05:40:42;;;;;;;44.70;35.07;;;;;;;22.47;69.77;97214.44;5057820;28;20946;-70
2022/08/27 05:43:09;;;;;;;41.73;34.10;;;;;;;22.51;69.86;97214.78;5050435;28;20191;-70
2022/08/27 05:45:43;;;;;;;48.43;34.50;;;;;;;22.51;69.86;97212.13;5058962;28;20435;-70
2022/08/27 05:48:12;;;;;;;43.20;33.13;;;;;;;22.54;70.06;97212.50;5050599;28;20924;-72
2022/08/27 05:50:39;;;;;;;46.63;35.60;;;;;;;22.59;69.86;97211.81;5050839;28;20836;-72
2022/08/27 05:53:06;;;;;;;54.10;35.00;;;;;;;22.62;69.74;97213.19;5050257;28;20788;-72
2022/08/27 05:55:40;;;;;;;51.67;34.30;;;;;;;22.61;69.80;97209.72;5060094;28;20422;-70
2022/08/27 05:58:06;;;;;;;44.43;33.47;;;;;;;22.64;70.34;97211.91;5049317;28;20863;-70
2022/08/27 06:03:16;;;;;;;54.70;38.17;;;;;;;22.64;70.47;97213.78;5048715;28;20409;-70
2022/08/27 06:05:41;;;;;;;52.47;36.77;;;;;;;22.70;70.30;97219.03;5050885;28;20426;-71
2022/08/27 06:08:07;;;;;;;49.43;37.30;;;;;;;22.74;70.21;97219.38;5049701;28;20186;-71
2022/08/27 06:10:34;;;;;;;42.70;33.07;;;;;;;22.77;70.48;97220.75;5047089;28;20178;-71
2022/08/27 06:12:59;;;;;;;41.33;32.37;;;;;;;22.82;70.66;97224.34;5055235;28;20194;-70
2022/08/27 06:15:25;;;;;;;52.97;33.10;;;;;;;22.80;70.68;97230.97;5051764;28;20516;-71
2022/08/27 06:17:51;;;;;;;48.13;33.30;;;;;;;22.83;70.63;97231.34;5050251;28;20264;-70
2022/08/27 06:20:17;;;;;;;43.30;33.50;;;;;;;22.79;70.08;97232.84;5052660;28;20179;-70
2022/08/27 06:22:43;;;;;;;41.93;33.60;;;;;;;22.81;70.06;97237.94;5057294;28;20430;-70
2022/08/27 06:25:08;;;;;;;41.00;31.47;;;;;;;22.82;69.81;97231.56;5050699;28;20274;-69
2022/08/27 06:27:34;;;;;;;51.43;30.93;;;;;;;22.81;69.74;97233.41;5049909;28;21052;-69
2022/08/27 06:29:59;;;;;;;46.23;33.03;;;;;;;22.85;69.76;97223.09;5050345;28;20328;-70
2022/08/27 06:32:25;;;;;;;41.03;30.80;;;;;;;22.88;69.51;97233.31;5050684;28;20179;-70
2022/08/27 06:34:50;;;;;;;40.00;30.90;;;;;;;22.84;69.28;97235.63;5050707;28;20183;-70
2022/08/27 06:37:16;;;;;;;37.77;30.70;;;;;;;22.86;69.40;97232.75;5052168;28;20218;-71
2022/08/27 06:39:41;;;;;;;37.87;29.10;;;;;;;22.90;68.85;97241.09;5054059;28;20207;-70
2022/08/27 06:42:11;;;;;;;34.77;28.70;;;;;;;22.91;68.81;97238.19;5054079;28;20558;-70
2022/08/27 06:44:36;;;;;;;34.70;28.70;;;;;;;22.94;68.61;97234.25;5056964;28;20194;-69
2022/08/27 06:47:02;;;;;;;38.00;29.70;;;;;;;22.96;68.49;97234.81;5065435;28;20449;-71
2022/08/27 06:49:28;;;;;;;39.10;28.80;;;;;;;22.97;68.89;97234.63;5052295;28;20229;-71
2022/08/27 06:51:54;;;;;;;33.73;27.20;;;;;;;23.02;68.78;97229.38;5053102;28;20437;-71
2022/08/27 06:54:19;;;;;;;31.63;26.90;;;;;;;23.11;68.95;97237.84;5053969;28;20513;-70
2022/08/27 06:56:45;;;;;;;39.10;30.63;;;;;;;23.16;68.67;97240.66;5058769;28;20210;-70
2022/08/27 06:59:14;;;;;;;35.87;29.33;;;;;;;23.26;68.80;97240.09;5056504;28;20234;-70
2022/08/27 07:01:42;;;;;;;35.20;28.40;;;;;;;23.35;68.23;97239.75;5054145;28;20629;-72
2022/08/27 07:04:10;;;;;;;31.60;26.40;;;;;;;23.40;68.13;97240.69;5053867;28;20429;-70
2022/08/27 07:06:38;;;;;;;35.13;28.23;;;;;;;23.45;67.97;97237.28;5053078;28;20447;-70
2022/08/27 07:09:04;;;;;;;34.90;26.27;;;;;;;23.47;67.62;97244.03;5062095;28;20513;-70
2022/08/27 07:11:32;;;;;;;31.40;26.37;;;;;;;23.51;67.30;97235.53;5050814;28;20479;-70
2022/08/27 07:13:58;;;;;;;30.00;25.47;;;;;;;23.56;67.45;97239.13;5053951;28;20421;-70
2022/08/27 07:16:25;;;;;;;32.43;26.27;;;;;;;23.58;67.07;97230.88;5052969;28;20510;-71
2022/08/27 07:18:55;;;;;;;33.83;27.47;;;;;;;23.57;66.51;97239.94;5053490;28;20257;-70
2022/08/27 07:21:21;;;;;;;30.10;25.87;;;;;;;23.55;66.61;97240.19;5061664;28;20482;-70
2022/08/27 07:23:48;;;;;;;33.33;26.30;;;;;;;23.54;66.52;97240.44;5047343;28;20414;-69
2022/08/27 07:26:15;;;;;;;30.60;26.37;;;;;;;23.53;66.66;97247.63;5053221;28;20462;-70
2022/08/27 07:28:41;;;;;;;30.93;25.60;;;;;;;23.53;66.59;97241.47;5058019;28;20421;-70
2022/08/27 07:31:09;;;;;;;30.60;24.60;;;;;;;23.52;66.59;97247.88;5056205;28;20460;-71
2022/08/27 07:33:36;;;;;;;34.70;23.03;;;;;;;23.53;66.67;97255.66;5053536;28;20457;-71
2022/08/27 07:36:02;;;;;;;29.10;23.70;;;;;;;23.53;66.44;97246.81;5053156;28;20456;-71
2022/08/27 07:38:28;;;;;;;32.27;25.37;;;;;;;23.53;66.31;97254.84;5052182;28;20465;-71
2022/08/27 07:40:53;;;;;;;32.37;22.10;;;;;;;23.56;66.07;97262.41;5053278;28;20425;-69
2022/08/27 07:46:04;;;;;;;27.80;23.17;;;;;;;23.55;66.11;97263.44;5059786;28;20592;-70
2022/08/27 07:48:32;;;;;;;29.73;24.47;;;;;;;23.52;66.37;97264.72;5043829;28;20990;-71
2022/08/27 07:50:57;;;;;;;34.13;25.03;;;;;;;23.49;66.47;97269.72;5053235;28;20418;-71
2022/08/27 07:53:23;;;;;;;26.40;22.73;;;;;;;23.50;66.46;97271.34;5052934;28;20832;-71
2022/08/27 07:55:48;;;;;;;31.17;23.83;;;;;;;23.50;66.61;97271.34;5053058;28;20717;-69
2022/08/27 07:58:14;;;;;;;32.13;25.30;;;;;;;23.54;66.50;97267.97;5060496;28;20206;-70
2022/08/27 08:00:41;;;;;;;31.60;24.80;;;;;;;23.54;66.46;97267.16;5053212;28;20187;-71
2022/08/27 08:03:07;;;;;;;38.97;26.73;;;;;;;23.55;66.48;97272.28;5051248;28;20182;-71
2022/08/27 08:05:33;;;;;;;35.80;26.03;;;;;;;23.56;66.56;97270.44;5056991;28;20861;-70
2022/08/27 08:07:58;;;;;;;35.00;29.57;;;;;;;23.58;66.62;97271.81;5052014;28;20179;-70
2022/08/27 08:10:24;;;;;;;33.67;26.83;;;;;;;23.61;66.72;97273.19;5052368;28;20277;-70
2022/08/27 08:12:50;;;;;;;32.90;27.07;;;;;;;23.62;66.57;97274.81;5052618;28;20647;-68
2022/08/27 08:15:16;;;;;;;34.37;27.10;;;;;;;23.61;66.83;97279.38;5052657;28;20190;-71
2022/08/27 08:17:42;;;;;;;39.40;28.07;;;;;;;23.63;66.86;97279.13;5051487;28;20449;-71
2022/08/27 08:20:10;;;;;;;39.90;27.97;;;;;;;23.67;66.83;97282.97;5053153;28;20432;-71
2022/08/27 08:22:37;;;;;;;32.40;26.57;;;;;;;23.68;66.85;97283.78;5060049;28;20433;-70
2022/08/27 08:25:05;;;;;;;37.70;28.13;;;;;;;23.69;66.88;97286.19;5052721;28;20414;-70
2022/08/27 08:27:31;;;;;;;41.43;27.47;;;;;;;23.69;66.43;97286.19;5043448;28;20448;-72
2022/08/27 08:29:58;;;;;;;30.60;24.83;;;;;;;23.66;66.38;97284.00;5052559;28;20425;-71
2022/08/27 08:32:23;;;;;;;37.03;28.00;;;;;;;23.63;66.20;97285.28;5052014;28;20194;-70
2022/08/27 08:34:49;;;;;;;30.70;25.20;;;;;;;23.59;66.65;97285.97;5051196;28;20417;-71
2022/08/27 08:37:15;;;;;;;36.60;29.70;;;;;;;23.60;66.97;97287.63;5051181;28;20246;-71
2022/08/27 08:39:40;;;;;;;36.13;28.00;;;;;;;23.60;66.63;97292.97;5051722;28;20821;-71
2022/08/27 08:42:18;;;;;;;41.10;30.17;;;;;;;23.57;66.97;97296.09;5052026;28;20615;-72
2022/08/27 08:44:48;;;;;;;42.63;30.27;;;;;;;23.60;67.59;97295.63;5054577;28;20178;-71
2022/08/27 08:47:49;;;;;;;44.10;29.03;;;;;;;23.62;67.66;97298.91;5051835;28;20450;-69
2022/08/27 08:50:21;;;;;;;37.63;28.70;;;;;;;23.61;67.45;97294.59;5029327;28;20808;-71
2022/08/27 08:53:18;;;;;;;42.00;28.73;;;;;;;23.58;67.42;97303.06;5044010;28;20970;-71
2022/08/27 08:55:50;;;;;;;35.20;29.47;;;;;;;23.56;67.64;97299.84;5050036;28;20588;-70
2022/08/27 08:58:34;;;;;;;31.40;28.03;;;;;;;23.55;67.77;97300.91;5049417;28;20828;-70
2022/08/27 09:01:03;;;;;;;37.00;28.80;;;;;;;23.51;68.11;97305.88;5051708;28;20426;-70
2022/08/27 09:03:34;;;;;;;41.80;30.47;;;;;;;23.47;67.94;97310.06;5043328;28;20441;-71
2022/08/27 09:06:04;;;;;;;38.13;28.20;;;;;;;23.42;68.19;97313.44;5051935;28;20441;-72
2022/08/27 09:08:39;;;;;;;38.77;30.90;;;;;;;23.42;68.52;97301.94;5042003;28;20504;-72
2022/08/27 09:11:07;;;;;;;40.17;30.80;;;;;;;23.41;68.16;97309.16;5051340;28;20434;-72
2022/08/27 09:13:47;;;;;;;41.43;30.80;;;;;;;23.45;68.43;97310.28;5051477;28;20512;-69
2022/08/27 09:16:13;;;;;;;32.87;28.33;;;;;;;23.50;68.54;97309.63;5051570;28;20449;-71
2022/08/27 09:18:40;;;;;;;38.77;27.83;;;;;;;23.53;68.52;97302.97;5051205;28;20460;-70
2022/08/27 09:21:30;;;;;;;37.40;28.90;;;;;;;23.54;68.47;97309.97;5059767;28;20320;-70
2022/08/27 09:24:02;;;;;;;38.30;28.57;;;;;;;23.58;68.31;97308.44;5051510;28;21020;-71
2022/08/27 09:26:29;;;;;;;39.60;27.17;;;;;;;23.64;68.23;97312.84;5060518;28;20991;-71
2022/08/27 09:31:46;;;;;;;36.63;27.27;;;;;;;23.76;68.28;97310.97;5044398;28;20832;-73
2022/08/27 09:34:12;;;;;;;35.73;27.30;;;;;;;23.78;68.37;97303.53;5050794;28;20808;-71
2022/08/27 09:36:58;;;;;;;37.17;27.70;;;;;;;23.77;68.33;97315.28;5050388;28;20457;-72
2022/08/27 09:39:28;;;;;;;36.33;25.30;;;;;;;23.81;67.75;97314.81;5049740;28;20542;-71
2022/08/27 09:41:54;;;;;;;45.40;26.27;;;;;;;23.81;67.96;97314.81;5050059;28;21110;-70
2022/08/27 09:44:21;;;;;;;34.27;25.70;;;;;;;23.82;67.69;97308.44;5047770;28;20430;-70
2022/08/27 09:46:55;;;;;;;31.33;24.60;;;;;;;23.83;67.45;97307.34;5056230;28;20451;-70
2022/08/27 09:49:21;;;;;;;26.17;21.03;;;;;;;23.84;67.45;97309.81;5050611;28;20529;-71
2022/08/27 09:51:46;;;;;;;19.80;17.80;;;;;;;23.83;67.26;97304.66;5051244;28;20421;-72
2022/08/27 09:54:26;;;;;;;17.80;15.97;;;;;;;23.84;67.16;97303.63;5049864;28;20183;-70
2022/08/27 09:56:51;;;;;;;27.67;14.90;;;;;;;23.88;67.30;97302.13;5052163;28;20209;-71
2022/08/27 09:59:22;;;;;;;18.67;14.80;;;;;;;23.90;67.27;97314.19;5050706;28;20468;-72
2022/08/27 10:02:04;;;;;;;16.57;13.57;;;;;;;23.95;67.30;97310.81;5049759;28;20183;-71
2022/08/27 10:04:39;;;;;;;16.50;14.80;;;;;;;24.01;67.38;97309.09;5041634;28;20421;-72
2022/08/27 10:07:30;;;;;;;13.40;12.10;;;;;;;24.12;67.79;97305.59;5050204;28;21002;-70
2022/08/27 10:10:17;;;;;;;13.83;10.87;;;;;;;24.20;67.20;97296.34;5049544;28;20430;-70
2022/08/27 10:13:00;;;;;;;13.17;11.07;;;;;;;24.24;66.57;97294.84;5048954;28;20417;-71
2022/08/27 10:15:33;;;;;;;15.30;11.33;;;;;;;24.30;66.90;97299.25;5053549;28;20436;-71
2022/08/27 10:18:02;;;;;;;12.17;10.10;;;;;;;24.38;67.21;97298.84;5054219;28;20456;-71
2022/08/27 10:20:34;;;;;;;11.87;10.50;;;;;;;24.43;66.64;97297.34;5056415;28;20507;-72
2022/08/27 10:23:30;;;;;;;12.87;11.57;;;;;;;24.39;66.58;97305.84;5058870;28;20471;-71
2022/08/27 10:26:37;;;;;;;10.90;9.97;;;;;;;24.41;66.56;97300.22;5054879;28;20449;-71
2022/08/27 10:29:24;;;;;;;11.53;10.37;;;;;;;24.41;66.50;97302.13;5051018;28;20432;-72
2022/08/27 10:32:17;;;;;;;11.50;10.30;;;;;;;24.41;66.34;97297.56;5049319;28;20409;-71
2022/08/27 10:34:54;;;;;;;12.27;10.63;;;;;;;24.43;65.42;97300.00;5053265;28;20460;-71
2022/08/27 10:37:41;;;;;;;12.63;11.33;;;;;;;24.51;65.28;97300.41;5054177;28;20465;-70
2022/08/27 10:40:25;;;;;;;12.83;11.60;;;;;;;24.64;65.40;97307.34;5050958;28;20434;-70
2022/08/27 10:43:12;;;;;;;12.43;10.83;;;;;;;24.73;65.43;97307.81;5054228;28;20409;-71
2022/08/27 10:45:55;;;;;;;12.80;11.13;;;;;;;24.74;64.50;97316.66;5053879;28;20487;-70
2022/08/27 10:48:23;;;;;;;13.53;11.93;;;;;;;24.76;64.36;97314.56;5060750;28;20454;-71
2022/08/27 10:50:53;;;;;;;12.07;10.73;;;;;;;24.75;64.39;97318.28;5054427;28;20421;-71
2022/08/27 10:53:40;;;;;;;16.07;12.40;;;;;;;24.74;63.73;97322.00;5050130;28;20423;-71
2022/08/27 10:56:56;;;;;;;16.40;11.90;;;;;;;24.75;63.92;97320.97;5053887;28;20472;-71
2022/08/27 11:00:00;;;;;;;12.47;11.30;;;;;;;24.74;64.41;97322.84;5015111;28;20859;-71
2022/08/27 11:02:43;;;;;;;17.50;13.10;;;;;;;24.75;64.17;97323.63;5031413;28;20422;-69
2022/08/27 11:05:19;;;;;;;13.53;12.13;;;;;;;24.75;64.45;97329.00;5031446;28;20431;-70
2022/08/27 11:08:23;;;;;;;14.60;13.03;;;;;;;24.76;64.36;97325.25;5045299;28;20452;-71
2022/08/27 11:10:56;;;;;;;14.23;12.73;;;;;;;24.79;64.27;97330.16;5054456;28;20444;-71
2022/08/27 11:13:31;;;;;;;15.50;13.03;;;;;;;24.75;63.64;97323.63;5053924;28;20826;-72
2022/08/27 11:15:57;;;;;;;19.10;13.80;;;;;;;24.74;64.03;97322.00;5052678;28;20449;-71
2022/08/27 11:18:29;;;;;;;18.00;13.27;;;;;;;24.70;63.82;97321.69;5052958;28;20492;-71
2022/08/27 11:20:58;;;;;;;16.23;13.77;;;;;;;24.69;63.57;97320.06;5060619;28;20409;-71
2022/08/27 11:23:36;;;;;;;17.20;14.97;;;;;;;24.66;63.77;97325.84;5053399;28;20430;-72
2022/08/27 11:26:04;;;;;;;15.13;12.70;;;;;;;24.65;64.01;97327.75;5052611;28;20936;-72
2022/08/27 11:28:38;;;;;;;14.57;13.20;;;;;;;24.60;64.26;97324.16;5052620;28;20422;-70
2022/08/27 11:31:34;;;;;;;15.37;13.77;;;;;;;24.52;64.34;97328.03;5052501;28;20424;-70
2022/08/27 11:34:11;;;;;;;15.83;13.90;;;;;;;24.50;64.77;97330.13;5049650;28;20440;-70
2022/08/27 11:36:51;;;;;;;18.50;14.60;;;;;;;24.48;65.27;97329.56;5045378;28;20453;-71